createdAt,value
2023-02-08T00:01:51.420Z,34.50
2023-02-08T00:04:20.132Z,40.67
2023-02-08T00:06:47.570Z,39.60
2023-02-08T00:09:15.016Z,37.83
2023-02-08T00:11:42.357Z,35.67
2023-02-08T00:14:09.855Z,31.67
2023-02-08T00:16:37.216Z,33.35
2023-02-08T00:19:04.552Z,31.90
2023-02-08T00:21:33.189Z,34.95
2023-02-08T00:24:00.530Z,34.10
2023-02-08T00:26:27.845Z,28.05
2023-02-08T00:28:55.196Z,34.67
2023-02-08T00:31:22.712Z,32.88
2023-02-08T00:33:50.085Z,33.08
2023-02-08T00:36:17.432Z,32.70
2023-02-08T00:38:46.163Z,36.10
2023-02-08T00:41:13.460Z,34.70
2023-02-08T00:43:40.791Z,31.73
2023-02-08T00:46:09.529Z,32.53
2023-02-08T00:48:36.933Z,37.03
2023-02-08T00:51:06.665Z,38.00
2023-02-08T00:53:36.314Z,41.40
2023-02-08T00:56:05.492Z,30.77
2023-02-08T00:58:32.820Z,37.58
2023-02-08T01:01:00.222Z,33.67
2023-02-08T01:03:28.101Z,34.22
2023-02-08T01:05:55.630Z,35.25
2023-02-08T01:08:22.952Z,34.97
2023-02-08T01:10:50.287Z,34.17
2023-02-08T01:13:18.950Z,38.92
2023-02-08T01:15:46.304Z,36.25
2023-02-08T01:18:13.642Z,39.80
2023-02-08T01:20:41.101Z,39.60
2023-02-08T01:23:08.556Z,41.83
2023-02-08T01:25:35.968Z,40.47
2023-02-08T01:28:03.341Z,40.53
2023-02-08T01:30:32.049Z,38.15
2023-02-08T01:32:59.392Z,37.00
2023-02-08T01:35:26.698Z,35.13
2023-02-08T01:37:54.031Z,34.75
2023-02-08T01:40:21.394Z,35.78
2023-02-08T01:42:48.705Z,36.40
2023-02-08T01:45:24.677Z,33.22
2023-02-08T01:47:56.052Z,32.40
2023-02-08T01:50:24.043Z,22.33
2023-02-08T01:52:52.042Z,25.98
2023-02-08T01:55:21.719Z,24.63
2023-02-08T01:57:52.353Z,19.10
2023-02-08T02:00:22.306Z,17.67
2023-02-08T02:05:39.676Z,15.35
2023-02-08T02:16:12.305Z,30.98
2023-02-08T02:30:44.057Z,35.33
2023-02-08T03:08:34.916Z,42.88
2023-02-08T03:11:18.564Z,40.72
2023-02-08T03:13:56.591Z,39.50
2023-02-08T03:16:29.333Z,42.83
2023-02-08T03:19:03.113Z,40.45
2023-02-08T03:21:36.060Z,40.90
2023-02-08T03:24:09.614Z,36.60
2023-02-08T03:33:22.073Z,39.95
2023-02-08T03:35:50.828Z,38.50
2023-02-08T03:38:20.306Z,36.35
2023-02-08T03:40:50.284Z,40.15
2023-02-08T03:43:19.505Z,35.92
2023-02-08T03:45:48.827Z,38.00
2023-02-08T03:48:17.794Z,41.13
2023-02-08T03:50:47.085Z,41.57
2023-02-08T03:53:17.246Z,47.22
2023-02-08T03:55:46.356Z,45.17
2023-02-08T03:58:18.892Z,43.10
2023-02-08T04:00:48.717Z,46.78
2023-02-08T04:09:54.440Z,36.17
2023-02-08T04:12:21.861Z,43.35
2023-02-08T04:14:50.541Z,42.17
2023-02-08T04:17:17.844Z,42.72
2023-02-08T04:19:45.183Z,45.10
2023-02-08T04:22:12.511Z,40.75
2023-02-08T04:24:40.591Z,46.15
2023-02-08T04:27:07.943Z,37.92
2023-02-08T04:29:36.285Z,45.83
2023-02-08T04:32:05.146Z,46.15
2023-02-08T04:34:32.455Z,45.20
2023-02-08T04:36:59.812Z,44.08
2023-02-08T04:39:27.278Z,43.90
2023-02-08T04:41:54.693Z,48.40
2023-02-08T04:44:22.061Z,43.28
2023-02-08T04:46:50.038Z,44.78
2023-02-08T04:49:18.726Z,48.13
2023-02-08T04:51:46.074Z,45.30
2023-02-08T04:54:13.380Z,44.30
2023-02-08T04:56:40.899Z,45.42
2023-02-08T04:59:08.521Z,44.50
2023-02-08T05:01:36.190Z,47.08
2023-02-08T05:04:03.675Z,44.33
2023-02-08T05:06:32.378Z,48.30
2023-02-08T05:08:59.735Z,43.42
2023-02-08T05:11:27.186Z,44.30
2023-02-08T05:13:54.710Z,43.22
2023-02-08T05:16:22.101Z,45.28
2023-02-08T05:18:49.641Z,45.55
2023-02-08T05:21:16.986Z,45.60
2023-02-08T05:23:46.849Z,48.08
2023-02-08T05:26:14.309Z,40.58
2023-02-08T05:28:41.729Z,45.47
2023-02-08T05:31:11.025Z,42.83
2023-02-08T05:33:38.431Z,42.85
2023-02-08T05:36:06.142Z,43.35
2023-02-08T05:38:33.508Z,37.22
2023-02-08T05:41:02.207Z,41.30
2023-02-08T05:43:29.541Z,36.40
2023-02-08T05:45:57.102Z,42.38
2023-02-08T05:48:24.420Z,37.75
2023-02-08T05:50:51.811Z,43.40
2023-02-08T05:53:19.129Z,40.33
2023-02-08T05:55:46.892Z,45.22
2023-02-08T05:58:15.808Z,43.22
2023-02-08T06:00:43.452Z,45.97
2023-02-08T06:03:10.845Z,46.55
2023-02-08T06:05:38.524Z,42.17
2023-02-08T06:08:06.189Z,49.05
2023-02-08T06:10:33.751Z,45.53
2023-02-08T06:13:01.529Z,49.00
2023-02-08T06:15:30.250Z,37.53
2023-02-08T06:17:58.005Z,24.13
2023-02-08T06:20:25.892Z,27.52
2023-02-08T06:22:53.964Z,22.13
2023-02-08T06:25:21.782Z,32.88
2023-02-08T06:27:49.491Z,28.13
2023-02-08T06:30:17.554Z,26.30
2023-02-08T06:32:48.850Z,22.88
2023-02-08T06:35:19.702Z,26.33
2023-02-08T06:37:47.548Z,35.60
2023-02-08T06:40:15.526Z,29.05
2023-02-08T06:42:44.171Z,32.00
2023-02-08T06:45:13.600Z,33.17
2023-02-08T06:47:41.415Z,32.92
2023-02-08T06:50:10.550Z,33.38
2023-02-08T06:52:38.212Z,30.92
2023-02-08T06:55:06.004Z,34.03
2023-02-08T06:57:33.317Z,28.90
2023-02-08T07:00:00.648Z,31.73
2023-02-08T07:02:28.042Z,26.38
2023-02-08T07:04:55.406Z,29.23
2023-02-08T07:07:24.064Z,28.45
2023-02-08T07:09:51.442Z,29.65
2023-02-08T07:12:18.819Z,25.20
2023-02-08T07:14:46.197Z,24.90
2023-02-08T07:17:14.071Z,24.42
2023-02-08T07:19:41.611Z,25.13
2023-02-08T07:22:09.025Z,21.15
2023-02-08T07:24:38.374Z,20.80
2023-02-08T07:27:06.672Z,20.60
2023-02-08T07:29:34.422Z,19.08
2023-02-08T07:32:02.114Z,18.23
2023-02-08T07:34:30.441Z,20.27
2023-02-08T07:36:57.794Z,17.15
2023-02-08T07:39:25.233Z,18.42
2023-02-08T07:41:54.088Z,18.52
2023-02-08T07:44:21.426Z,16.85
2023-02-08T07:46:48.771Z,17.83
2023-02-08T07:49:16.121Z,20.55
2023-02-08T07:51:43.435Z,20.85
2023-02-08T07:54:10.764Z,23.50
2023-02-08T07:56:38.205Z,28.65
2023-02-08T07:59:06.902Z,27.45
2023-02-08T08:01:34.242Z,28.02
2023-02-08T08:04:01.719Z,29.75
2023-02-08T08:06:29.154Z,31.50
2023-02-08T08:08:56.660Z,32.38
2023-02-08T08:11:24.221Z,28.23
2023-02-08T08:13:51.867Z,33.95
2023-02-08T09:37:20.542Z,21.83
2023-02-08T10:23:34.084Z,21.60
2023-02-08T10:29:01.845Z,18.88
2023-02-08T10:34:14.774Z,20.38
2023-02-08T10:36:42.552Z,20.52
2023-02-08T10:39:16.048Z,20.13
2023-02-08T10:41:46.508Z,19.02
2023-02-08T10:44:21.262Z,18.88
2023-02-08T10:49:35.479Z,20.63
2023-02-08T10:52:03.214Z,19.08
2023-02-08T10:57:16.258Z,20.80
2023-02-08T10:59:49.379Z,20.35
2023-02-08T11:02:24.194Z,18.97
2023-02-08T11:05:02.719Z,21.92
2023-02-08T11:07:31.333Z,19.97
2023-02-08T11:10:16.023Z,20.83
2023-02-08T11:12:54.427Z,22.70
2023-02-08T11:15:23.388Z,23.92
2023-02-08T11:17:54.915Z,20.63
2023-02-08T11:20:25.423Z,20.98
2023-02-08T11:22:52.774Z,20.85
2023-02-08T11:25:31.955Z,21.50
2023-02-08T11:28:01.355Z,20.90
2023-02-08T11:33:14.907Z,20.52
2023-02-08T11:35:43.020Z,18.67
2023-02-08T11:38:19.058Z,20.00
2023-02-08T11:40:46.886Z,21.45
2023-02-08T11:43:22.604Z,19.80
2023-02-08T11:45:50.364Z,22.00
2023-02-08T16:07:54.849Z,46.45
2023-02-08T16:10:27.688Z,51.50
2023-02-08T16:12:57.998Z,53.28
2023-02-08T16:15:36.434Z,45.75
2023-02-08T16:18:06.559Z,55.78
2023-02-08T16:20:34.569Z,48.20
2023-02-08T16:23:04.373Z,47.38
2023-02-08T16:44:31.343Z,52.17
2023-02-08T16:46:59.649Z,54.88
2023-02-08T16:49:28.395Z,55.08
2023-02-08T16:52:00.357Z,45.58
2023-02-08T16:54:34.120Z,39.47
2023-02-08T16:57:02.513Z,38.85
2023-02-08T16:59:31.954Z,44.25
2023-02-08T17:02:00.460Z,47.50
2023-02-08T17:04:30.883Z,38.22
2023-02-08T17:06:59.421Z,46.25
2023-02-08T17:09:27.591Z,43.25
2023-02-08T17:11:55.748Z,46.50
2023-02-08T17:14:24.535Z,43.63
2023-02-08T17:16:53.392Z,42.42
2023-02-08T17:19:23.200Z,37.35
2023-02-08T17:24:18.452Z,40.35
2023-02-08T17:26:47.510Z,44.97
2023-02-08T17:29:16.475Z,46.30
2023-02-08T17:31:43.888Z,46.67
2023-02-08T17:34:12.624Z,50.30
2023-02-08T17:36:42.404Z,50.10
2023-02-08T17:39:15.125Z,45.35
2023-02-08T17:41:46.793Z,48.58
2023-02-08T17:44:15.175Z,47.65
2023-02-08T17:46:43.555Z,47.53
2023-02-08T17:49:11.946Z,39.85
2023-02-08T17:51:40.650Z,41.22
2023-02-08T17:54:08.012Z,38.80
2023-02-08T17:56:36.398Z,38.10
2023-02-08T17:59:05.384Z,29.73
2023-02-08T18:01:35.783Z,25.98
2023-02-08T18:04:03.138Z,29.98
2023-02-08T18:06:31.181Z,35.72
2023-02-08T18:08:59.981Z,33.35
2023-02-08T18:11:28.961Z,33.60
2023-02-08T18:13:59.788Z,32.90
2023-02-08T18:16:27.939Z,34.92
2023-02-08T18:18:56.355Z,35.70
2023-02-08T18:21:30.488Z,31.02
2023-02-08T18:24:02.263Z,29.27
2023-02-08T18:26:33.637Z,33.00
2023-02-08T18:29:02.091Z,26.98
2023-02-08T18:31:32.450Z,23.35
2023-02-08T18:34:00.451Z,27.00
2023-02-08T18:36:28.445Z,23.27
2023-02-08T18:38:57.240Z,27.00
2023-02-08T18:41:30.501Z,29.13
2023-02-08T18:44:02.396Z,29.48
2023-02-08T18:46:30.833Z,31.20
2023-02-08T18:48:58.953Z,22.52
2023-02-08T18:51:26.675Z,30.83
2023-02-08T18:54:00.367Z,25.63
2023-02-08T18:56:31.079Z,29.25
2023-02-08T18:59:01.696Z,24.73
2023-02-08T19:01:30.253Z,27.85
2023-02-08T19:03:58.484Z,30.70
2023-02-08T19:06:26.740Z,26.23
2023-02-08T19:08:55.802Z,23.25
2023-02-08T19:11:27.410Z,23.52
2023-02-08T19:13:56.680Z,27.35
2023-02-08T19:16:27.927Z,31.17
2023-02-08T19:18:56.447Z,27.30
2023-02-08T19:21:25.038Z,33.08
2023-02-08T19:23:58.421Z,29.55
2023-02-08T19:26:27.519Z,20.88
2023-02-08T19:28:59.270Z,18.35
2023-02-08T19:31:29.641Z,30.75
2023-02-08T19:33:58.970Z,26.20
2023-02-08T19:36:30.738Z,25.55
2023-02-08T19:39:04.811Z,30.48
2023-02-08T19:41:36.092Z,34.05
2023-02-08T19:44:06.176Z,23.88
2023-02-08T19:46:39.099Z,28.17
2023-02-08T19:49:11.634Z,26.02
2023-02-08T19:51:40.180Z,33.17
2023-02-08T19:54:13.489Z,31.35
2023-02-08T19:56:44.755Z,28.30
2023-02-08T19:59:16.813Z,24.30
2023-02-08T20:01:46.673Z,18.52
2023-02-08T20:04:15.173Z,30.10
2023-02-08T20:06:47.548Z,48.40
2023-02-08T20:09:18.989Z,27.58
2023-02-08T20:11:57.146Z,26.27
2023-02-08T20:14:26.505Z,22.88
2023-02-08T20:16:59.010Z,28.98
2023-02-08T20:19:27.063Z,37.92
2023-02-08T20:21:56.666Z,22.20
2023-02-08T20:24:27.352Z,24.17
2023-02-08T20:26:57.464Z,28.42
2023-02-08T20:29:28.105Z,30.10
2023-02-08T20:31:59.058Z,20.40
2023-02-08T20:34:29.460Z,23.02
2023-02-08T20:37:07.387Z,29.95
2023-02-08T20:39:38.703Z,26.52
2023-02-08T20:42:07.391Z,27.67
2023-02-08T20:44:36.168Z,24.38
2023-02-08T20:47:05.737Z,26.67
2023-02-08T20:49:35.334Z,26.17
2023-02-08T20:52:03.038Z,26.50
2023-02-08T20:54:32.644Z,31.25
2023-02-08T20:57:00.142Z,24.85
2023-02-08T20:59:31.222Z,21.35
2023-02-08T21:01:58.813Z,21.75
2023-02-08T21:04:27.251Z,16.40
2023-02-08T21:06:56.677Z,18.90
2023-02-08T21:09:24.237Z,20.95
2023-02-08T21:11:52.901Z,23.90
2023-02-08T21:14:23.046Z,30.38
2023-02-08T21:16:52.691Z,32.10
2023-02-08T21:19:21.953Z,24.67
2023-02-08T21:21:53.203Z,31.77
2023-02-08T21:24:23.924Z,26.52
2023-02-08T21:26:58.614Z,26.55
2023-02-08T21:29:26.345Z,26.60
2023-02-08T21:31:54.659Z,17.60
2023-02-08T21:34:25.134Z,26.33
2023-02-08T21:36:53.203Z,22.27
2023-02-08T21:39:24.549Z,21.15
2023-02-08T21:41:55.424Z,21.85
2023-02-08T21:44:22.846Z,25.77
2023-02-08T21:46:50.477Z,18.85
2023-02-08T21:49:35.511Z,20.75
2023-02-08T21:52:20.383Z,13.43
2023-02-08T21:54:53.434Z,18.67
2023-02-08T21:57:21.814Z,26.90
2023-02-08T21:59:49.925Z,19.73
2023-02-08T22:02:21.611Z,20.95
2023-02-08T22:04:49.039Z,21.77
2023-02-08T22:07:16.448Z,18.95
2023-02-08T22:09:44.130Z,21.52
2023-02-08T22:12:14.588Z,23.67
2023-02-08T22:14:41.944Z,24.73
2023-02-08T22:17:09.291Z,25.05
2023-02-08T22:19:37.482Z,24.60
2023-02-08T22:22:04.849Z,24.73
2023-02-08T22:24:33.134Z,25.38
2023-02-08T22:27:00.497Z,26.15
2023-02-08T22:29:29.238Z,23.75
2023-02-08T22:31:56.694Z,21.42
2023-02-08T22:34:26.094Z,23.58
2023-02-08T22:36:53.459Z,26.40
2023-02-08T22:39:20.854Z,26.35
2023-02-08T22:41:48.225Z,24.80
2023-02-08T22:44:15.686Z,21.40
2023-02-08T22:46:44.420Z,26.80
2023-02-08T22:49:11.796Z,23.00
2023-02-08T22:51:39.202Z,25.20
2023-02-08T22:54:06.983Z,26.63
2023-02-08T22:56:34.620Z,24.05
2023-02-08T22:59:02.019Z,29.08
2023-02-08T23:01:29.469Z,24.38
2023-02-08T23:04:01.431Z,18.75
2023-02-08T23:06:28.798Z,25.90
2023-02-08T23:08:56.151Z,20.42
2023-02-08T23:11:23.570Z,16.08
2023-02-08T23:13:51.062Z,24.30
2023-02-08T23:16:19.335Z,14.45
2023-02-08T23:18:46.736Z,23.75
2023-02-08T23:21:17.223Z,24.45
2023-02-08T23:23:44.621Z,23.33
2023-02-08T23:26:12.968Z,15.07
2023-02-08T23:28:40.281Z,23.65
2023-02-08T23:31:08.094Z,25.23
2023-02-08T23:33:35.903Z,26.13
2023-02-08T23:36:05.485Z,23.55
2023-02-08T23:38:34.190Z,24.60
2023-02-08T23:41:03.367Z,25.52
2023-02-08T23:43:30.763Z,23.27
2023-02-08T23:45:58.210Z,24.98
2023-02-08T23:48:25.698Z,21.63
2023-02-08T23:50:59.431Z,23.65
2023-02-08T23:53:30.140Z,30.35
2023-02-08T23:56:08.296Z,21.08
2023-02-08T23:58:35.627Z,27.75
